createdAt,value
2018-09-10T00:00:56.897Z,17.37
2018-09-10T00:01:56.789Z,17.36
2018-09-10T00:02:56.733Z,17.32
2018-09-10T00:03:56.989Z,17.31
2018-09-10T00:04:56.640Z,17.3
2018-09-10T00:05:56.652Z,17.28
2018-09-10T00:06:56.621Z,17.28
2018-09-10T00:07:56.985Z,17.24
2018-09-10T00:08:56.619Z,17.22
2018-09-10T00:09:56.653Z,17.15
2018-09-10T00:10:56.723Z,17.14
2018-09-10T00:11:56.630Z,17.14
2018-09-10T00:12:56.607Z,17.1
2018-09-10T00:13:56.615Z,17.07
2018-09-10T00:14:56.670Z,17.04
2018-09-10T00:15:56.628Z,17.03
2018-09-10T00:16:56.668Z,16.99
2018-09-10T00:17:56.692Z,16.97
2018-09-10T00:18:56.649Z,16.95
2018-09-10T00:19:56.600Z,16.94
2018-09-10T00:20:56.588Z,16.93
2018-09-10T00:21:56.605Z,16.9
2018-09-10T00:22:56.616Z,16.87
2018-09-10T00:23:56.623Z,16.85
2018-09-10T00:24:56.607Z,16.85
2018-09-10T00:25:56.704Z,16.84
2018-09-10T00:26:56.616Z,16.82
2018-09-10T00:27:56.707Z,16.8
2018-09-10T00:28:56.911Z,16.79
2018-09-10T00:29:56.624Z,16.8
2018-09-10T00:30:56.691Z,16.76
2018-09-10T00:31:56.652Z,16.77
2018-09-10T00:32:56.673Z,16.74
2018-09-10T00:33:56.666Z,16.74
2018-09-10T00:34:57.273Z,16.74
2018-09-10T00:35:56.730Z,16.73
2018-09-10T00:36:56.905Z,16.74
2018-09-10T00:37:56.684Z,16.73
2018-09-10T00:38:56.697Z,16.69
2018-09-10T00:39:56.725Z,16.7
2018-09-10T00:40:56.764Z,16.7
2018-09-10T00:41:56.864Z,16.68
2018-09-10T00:42:56.730Z,16.7
2018-09-10T00:43:56.660Z,16.68
2018-09-10T00:44:56.705Z,16.69
2018-09-10T00:45:56.608Z,16.66
2018-09-10T00:46:56.626Z,16.65
2018-09-10T00:47:56.720Z,16.64
2018-09-10T00:48:56.968Z,16.61
2018-09-10T00:49:56.652Z,16.62
2018-09-10T00:50:56.628Z,16.6
2018-09-10T00:51:56.690Z,16.58
2018-09-10T00:52:56.687Z,16.58
2018-09-10T00:53:56.702Z,16.56
2018-09-10T00:54:57.090Z,16.58
2018-09-10T00:55:56.728Z,16.58
2018-09-10T00:56:56.669Z,16.55
2018-09-10T00:57:56.631Z,16.56
2018-09-10T00:58:56.847Z,16.5
2018-09-10T00:59:56.838Z,16.51
2018-09-10T01:00:56.673Z,16.48
2018-09-10T01:01:56.763Z,16.46
2018-09-10T01:02:56.647Z,16.43
2018-09-10T01:03:56.725Z,16.41
2018-09-10T01:04:56.705Z,16.4
2018-09-10T01:05:56.668Z,16.39
2018-09-10T01:06:56.659Z,16.37
2018-09-10T01:07:56.741Z,16.36
2018-09-10T01:08:56.645Z,16.34
2018-09-10T01:09:56.653Z,16.33
2018-09-10T01:10:56.642Z,16.33
2018-09-10T01:11:56.641Z,16.32
2018-09-10T01:12:56.958Z,16.33
2018-09-10T01:13:56.706Z,16.3
2018-09-10T01:14:57.037Z,16.3
2018-09-10T01:15:56.825Z,16.3
2018-09-10T01:16:56.783Z,16.29
2018-09-10T01:17:57.370Z,16.29
2018-09-10T01:18:56.678Z,16.24
2018-09-10T01:19:56.748Z,16.22
2018-09-10T01:20:56.652Z,16.22
2018-09-10T01:21:56.793Z,16.21
2018-09-10T01:22:56.819Z,16.2
2018-09-10T01:23:56.675Z,16.17
2018-09-10T01:24:56.720Z,16.2
2018-09-10T01:25:56.676Z,16.16
2018-09-10T01:26:57.022Z,16.16
2018-09-10T01:27:56.701Z,16.13
2018-09-10T01:28:56.760Z,16.12
2018-09-10T01:29:56.679Z,16.11
2018-09-10T01:30:56.677Z,16.09
2018-09-10T01:31:56.762Z,16.09
2018-09-10T01:32:56.679Z,16.08
2018-09-10T01:33:56.671Z,16.08
2018-09-10T01:34:56.667Z,16.05
2018-09-10T01:35:56.711Z,16.06
2018-09-10T01:36:56.762Z,16.04
2018-09-10T01:37:56.688Z,16.04
2018-09-10T01:38:56.663Z,16.01
2018-09-10T01:39:56.695Z,16
2018-09-10T01:40:56.662Z,16.01
2018-09-10T01:41:56.676Z,15.99
2018-09-10T01:42:56.674Z,15.99
2018-09-10T01:43:56.718Z,15.97
2018-09-10T01:44:56.748Z,15.98
2018-09-10T01:45:56.706Z,15.97
2018-09-10T01:46:56.645Z,15.97
2018-09-10T01:47:56.659Z,15.96
2018-09-10T01:48:56.701Z,15.95
2018-09-10T01:49:56.740Z,15.92
2018-09-10T01:50:56.738Z,15.93
2018-09-10T01:51:56.685Z,15.92
2018-09-10T01:52:56.732Z,15.92
2018-09-10T01:53:56.696Z,15.91
2018-09-10T01:54:56.729Z,15.91
2018-09-10T01:55:56.670Z,15.91
2018-09-10T01:56:56.682Z,15.87
2018-09-10T01:57:57.026Z,15.87
2018-09-10T01:58:56.848Z,15.86
2018-09-10T01:59:56.679Z,15.82
2018-09-10T02:00:56.676Z,15.84
2018-09-10T02:01:56.678Z,15.79
2018-09-10T02:02:56.682Z,15.78
2018-09-10T02:03:56.747Z,15.78
2018-09-10T02:04:56.752Z,15.75
2018-09-10T02:05:56.897Z,15.76
2018-09-10T02:06:56.681Z,15.74
2018-09-10T02:07:56.812Z,15.76
2018-09-10T02:08:56.676Z,15.74
2018-09-10T02:09:56.742Z,15.73
2018-09-10T02:10:56.845Z,15.73
2018-09-10T02:11:56.731Z,15.7
2018-09-10T02:12:56.866Z,15.71
2018-09-10T02:13:56.714Z,15.72
2018-09-10T02:14:57.044Z,15.68
2018-09-10T02:15:56.814Z,15.66
2018-09-10T02:16:57.342Z,15.63
2018-09-10T02:17:56.684Z,15.61
2018-09-10T02:18:56.905Z,15.57
2018-09-10T02:19:56.900Z,15.56
2018-09-10T02:20:56.796Z,15.56
2018-09-10T02:21:56.728Z,15.56
2018-09-10T02:22:56.671Z,15.55
2018-09-10T02:23:56.696Z,15.53
2018-09-10T02:24:56.700Z,15.51
2018-09-10T02:25:56.714Z,15.53
2018-09-10T02:26:56.888Z,15.49
2018-09-10T02:27:56.750Z,15.5
2018-09-10T02:28:56.751Z,15.49
2018-09-10T02:29:57.136Z,15.48
2018-09-10T02:30:56.858Z,15.49
2018-09-10T02:31:56.800Z,15.49
2018-09-10T02:32:56.846Z,15.49
2018-09-10T02:33:56.898Z,15.48
2018-09-10T02:34:56.802Z,15.49
2018-09-10T02:35:57.186Z,15.47
2018-09-10T02:36:56.771Z,15.46
2018-09-10T02:37:56.692Z,15.46
2018-09-10T02:38:56.868Z,15.45
2018-09-10T02:39:57.596Z,15.42
2018-09-10T02:40:57.122Z,15.4
2018-09-10T02:41:56.718Z,15.42
2018-09-10T02:42:56.805Z,15.41
2018-09-10T02:43:56.740Z,15.38
2018-09-10T02:44:57.101Z,15.36
2018-09-10T02:45:56.791Z,15.36
2018-09-10T02:46:56.719Z,15.35
2018-09-10T02:47:57.035Z,15.36
2018-09-10T02:48:56.700Z,15.35
2018-09-10T02:49:56.696Z,15.35
2018-09-10T02:50:56.943Z,15.36
2018-09-10T02:51:56.733Z,15.35
2018-09-10T02:52:56.789Z,15.35
2018-09-10T02:53:56.753Z,15.35
2018-09-10T02:54:57.122Z,15.31
2018-09-10T02:55:56.701Z,15.33
2018-09-10T02:56:56.850Z,15.31
2018-09-10T02:57:56.838Z,15.3
2018-09-10T02:58:56.718Z,15.3
2018-09-10T02:59:56.691Z,15.29
2018-09-10T03:00:56.730Z,15.28
2018-09-10T03:01:56.710Z,15.28
2018-09-10T03:02:56.730Z,15.25
2018-09-10T03:03:56.708Z,15.27
2018-09-10T03:04:56.750Z,15.23
2018-09-10T03:05:56.708Z,15.23
2018-09-10T03:06:56.853Z,15.22
2018-09-10T03:07:56.758Z,15.2
2018-09-10T03:08:56.734Z,15.21
2018-09-10T03:09:56.760Z,15.19
2018-09-10T03:10:56.824Z,15.19
2018-09-10T03:11:56.772Z,15.21
2018-09-10T03:12:56.751Z,15.21
2018-09-10T03:13:56.757Z,15.17
2018-09-10T03:14:56.739Z,15.16
2018-09-10T03:15:56.758Z,15.17
2018-09-10T03:16:57.390Z,15.18
2018-09-10T03:17:57.209Z,15.13
2018-09-10T03:18:56.844Z,15.14
2018-09-10T03:19:57.174Z,15.15
2018-09-10T03:20:56.844Z,15.12
2018-09-10T03:21:56.799Z,15.09
2018-09-10T03:22:56.862Z,15.09
2018-09-10T03:23:57.400Z,15.09
2018-09-10T03:24:56.709Z,15.09
2018-09-10T03:25:57.526Z,15.11
2018-09-10T03:26:56.864Z,15.09
2018-09-10T03:27:57.050Z,15.1
2018-09-10T03:28:56.877Z,15.07
2018-09-10T03:29:56.737Z,15.05
2018-09-10T03:30:56.834Z,15.07
2018-09-10T03:31:57.269Z,15.08
2018-09-10T03:32:56.830Z,15.05
2018-09-10T03:33:56.837Z,15.04
2018-09-10T03:34:57.086Z,15.01
2018-09-10T03:35:56.962Z,15.01
2018-09-10T03:36:56.752Z,15.02
2018-09-10T03:37:56.732Z,14.99
2018-09-10T03:38:56.787Z,14.98
2018-09-10T03:39:56.764Z,14.92
2018-09-10T03:40:57.016Z,14.94
2018-09-10T03:41:56.788Z,14.95
2018-09-10T03:42:56.726Z,14.95
2018-09-10T03:43:56.753Z,14.94
2018-09-10T03:44:56.774Z,14.92
2018-09-10T03:45:57.172Z,14.93
2018-09-10T03:46:56.737Z,14.91
2018-09-10T03:47:56.797Z,14.92
2018-09-10T03:48:56.857Z,14.92
2018-09-10T03:49:56.876Z,14.93
2018-09-10T03:50:56.735Z,14.96
2018-09-10T03:51:56.789Z,14.96
2018-09-10T03:52:57.067Z,14.95
2018-09-10T03:53:57.411Z,14.96
2018-09-10T03:54:56.949Z,14.98
2018-09-10T03:55:56.768Z,14.97
2018-09-10T03:56:56.754Z,14.96
2018-09-10T03:57:56.946Z,14.95
2018-09-10T03:58:56.836Z,14.89
2018-09-10T03:59:56.760Z,14.9
2018-09-10T04:00:57.019Z,14.88
2018-09-10T04:01:56.796Z,14.84
2018-09-10T04:02:56.802Z,14.84
2018-09-10T04:03:58.211Z,14.85
2018-09-10T04:04:56.775Z,14.85
2018-09-10T04:05:57.170Z,14.86
2018-09-10T04:06:56.753Z,14.82
2018-09-10T04:07:56.757Z,14.81
2018-09-10T04:08:56.897Z,14.81
2018-09-10T04:09:56.776Z,14.8
2018-09-10T04:10:56.861Z,14.81
2018-09-10T04:11:56.786Z,14.79
2018-09-10T04:12:57.285Z,14.78
2018-09-10T04:13:56.993Z,14.78
2018-09-10T04:14:56.806Z,14.78
2018-09-10T04:15:56.774Z,14.77
2018-09-10T04:16:56.980Z,14.79
2018-09-10T04:17:56.887Z,14.74
2018-09-10T04:18:56.879Z,14.75
2018-09-10T04:19:56.981Z,14.74
2018-09-10T04:20:56.759Z,14.75
2018-09-10T04:21:56.956Z,14.72
2018-09-10T04:22:56.775Z,14.7
2018-09-10T04:23:56.831Z,14.69
2018-09-10T04:24:56.765Z,14.66
2018-09-10T04:25:57.324Z,14.64
2018-09-10T04:26:56.863Z,14.64
2018-09-10T04:27:56.801Z,14.61
2018-09-10T04:28:56.892Z,14.59
2018-09-10T04:29:56.800Z,14.54
2018-09-10T04:30:56.802Z,14.55
2018-09-10T04:31:56.849Z,14.54
2018-09-10T04:32:56.846Z,14.53
2018-09-10T04:33:56.790Z,14.49
2018-09-10T04:34:57.175Z,14.51
2018-09-10T04:35:57.343Z,14.48
2018-09-10T04:36:57.170Z,14.47
2018-09-10T04:37:56.750Z,14.46
2018-09-10T04:38:56.765Z,14.46
2018-09-10T04:39:56.804Z,14.45
2018-09-10T04:40:56.769Z,14.44
2018-09-10T04:41:56.816Z,14.42
2018-09-10T04:42:56.810Z,14.44
2018-09-10T04:43:56.810Z,14.41
2018-09-10T04:44:56.781Z,14.41
2018-09-10T04:45:57.255Z,14.4
2018-09-10T04:46:56.803Z,14.41
2018-09-10T04:47:57.168Z,14.41
2018-09-10T04:48:56.779Z,14.4
2018-09-10T04:49:56.924Z,14.41
2018-09-10T04:50:56.856Z,14.42
2018-09-10T04:51:56.804Z,14.41
2018-09-10T04:52:56.750Z,14.41
2018-09-10T04:53:56.899Z,14.41
2018-09-10T04:54:56.820Z,14.39
2018-09-10T04:55:56.752Z,14.39
2018-09-10T04:56:56.823Z,14.39
2018-09-10T04:57:57.259Z,14.38
2018-09-10T04:58:56.770Z,14.35
2018-09-10T04:59:56.827Z,14.35
2018-09-10T05:00:56.775Z,14.36
2018-09-10T05:01:56.873Z,14.35
2018-09-10T05:02:56.762Z,14.35
2018-09-10T05:03:56.977Z,14.34
2018-09-10T05:04:56.811Z,14.35
2018-09-10T05:05:56.780Z,14.34
2018-09-10T05:06:56.882Z,14.32
2018-09-10T05:07:57.206Z,14.34
2018-09-10T05:08:57.239Z,14.34
2018-09-10T05:09:57.608Z,14.35
2018-09-10T05:10:56.828Z,14.37
2018-09-10T05:11:56.752Z,14.33
2018-09-10T05:13:04.070Z,14.36
2018-09-10T05:13:56.779Z,14.35
2018-09-10T05:14:56.766Z,14.35
2018-09-10T05:15:56.785Z,14.35
2018-09-10T05:16:56.855Z,14.32
2018-09-10T05:17:56.835Z,14.33
2018-09-10T05:18:57.167Z,14.34
2018-09-10T05:19:56.870Z,14.33
2018-09-10T05:20:56.802Z,14.34
2018-09-10T05:21:57.659Z,14.33
2018-09-10T05:22:56.799Z,14.34
2018-09-10T05:23:57.094Z,14.34
2018-09-10T05:24:56.939Z,14.35
2018-09-10T05:25:56.857Z,14.36
2018-09-10T05:26:57.255Z,14.37
2018-09-10T05:27:57.095Z,14.39
2018-09-10T05:28:57.150Z,14.39
2018-09-10T05:29:56.820Z,14.4
2018-09-10T05:30:56.826Z,14.41
2018-09-10T05:31:56.842Z,14.39
2018-09-10T05:32:56.930Z,14.41
2018-09-10T05:33:56.816Z,14.4
2018-09-10T05:34:57.177Z,14.41
2018-09-10T05:35:56.889Z,14.4
2018-09-10T05:36:56.803Z,14.4
2018-09-10T05:37:56.798Z,14.43
2018-09-10T05:38:56.855Z,14.42
2018-09-10T05:39:57.428Z,14.43
2018-09-10T05:40:56.843Z,14.42
2018-09-10T05:41:56.830Z,14.46
2018-09-10T05:42:56.926Z,14.47
2018-09-10T05:43:56.818Z,14.49
2018-09-10T05:44:56.890Z,14.53
2018-09-10T05:45:56.789Z,14.54
2018-09-10T05:46:57.181Z,14.57
2018-09-10T05:47:56.965Z,14.58
2018-09-10T05:48:56.828Z,14.6
2018-09-10T05:49:56.864Z,14.64
2018-09-10T05:50:57.019Z,14.65
2018-09-10T05:51:56.895Z,14.64
2018-09-10T05:52:56.837Z,14.65
2018-09-10T05:53:56.950Z,14.65
2018-09-10T05:54:56.877Z,14.67
2018-09-10T05:55:56.884Z,14.67
2018-09-10T05:56:56.815Z,14.71
2018-09-10T05:57:56.874Z,14.72
2018-09-10T05:58:56.860Z,14.73
2018-09-10T05:59:56.847Z,14.77
2018-09-10T06:00:57.277Z,14.79
2018-09-10T06:01:56.790Z,14.8
2018-09-10T06:02:56.940Z,14.78
2018-09-10T06:03:57.002Z,14.84
2018-09-10T06:04:56.837Z,14.84
2018-09-10T06:05:56.893Z,14.85
2018-09-10T06:06:56.923Z,14.87
2018-09-10T06:07:56.897Z,14.9
2018-09-10T06:08:56.964Z,14.92
2018-09-10T06:09:56.936Z,14.96
2018-09-10T06:10:56.924Z,14.97
2018-09-10T06:11:56.951Z,14.98
2018-09-10T06:12:57.229Z,15.03
2018-09-10T06:13:57.002Z,15.03
2018-09-10T06:14:57.097Z,15.05
2018-09-10T06:15:57.033Z,15.09
2018-09-10T06:16:57.010Z,15.1
2018-09-10T06:17:56.944Z,15.14
2018-09-10T06:18:56.865Z,15.15
2018-09-10T06:19:56.854Z,15.21
2018-09-10T06:20:56.851Z,15.21
2018-09-10T06:21:56.814Z,15.25
2018-09-10T06:22:56.921Z,15.27
2018-09-10T06:23:56.950Z,15.28
2018-09-10T06:24:56.857Z,15.31
2018-09-10T06:25:56.916Z,15.32
2018-09-10T06:26:56.925Z,15.37
2018-09-10T06:27:56.846Z,15.39
2018-09-10T06:28:56.841Z,15.4
2018-09-10T06:29:56.819Z,15.42
2018-09-10T06:30:57.245Z,15.45
2018-09-10T06:31:57.264Z,15.46
2018-09-10T06:32:57.159Z,15.47
2018-09-10T06:33:57.092Z,15.51
2018-09-10T06:34:57.079Z,15.53
2018-09-10T06:35:56.842Z,15.54
2018-09-10T06:36:57.647Z,15.59
2018-09-10T06:37:56.817Z,15.61
2018-09-10T06:38:57.210Z,15.65
2018-09-10T06:39:56.919Z,15.7
2018-09-10T06:40:56.934Z,15.72
2018-09-10T06:41:57.212Z,15.74
2018-09-10T06:42:56.908Z,15.77
2018-09-10T06:43:57.166Z,15.79
2018-09-10T06:44:56.842Z,15.83
2018-09-10T06:45:56.920Z,15.86
2018-09-10T06:46:57.269Z,15.89
2018-09-10T06:47:57.276Z,15.91
2018-09-10T06:48:57.205Z,15.95
2018-09-10T06:49:56.878Z,15.99
2018-09-10T06:50:56.843Z,16.02
2018-09-10T06:51:56.859Z,16.06
2018-09-10T06:52:56.906Z,16.08
2018-09-10T06:53:56.899Z,16.1
2018-09-10T06:55:00.224Z,16.16
2018-09-10T06:55:56.887Z,16.16
2018-09-10T06:56:56.848Z,16.2
2018-09-10T06:57:57.149Z,16.24
2018-09-10T06:58:56.863Z,16.23
2018-09-10T06:59:56.856Z,16.28
2018-09-10T07:00:57.153Z,16.32
2018-09-10T07:01:56.887Z,16.36
2018-09-10T07:02:56.843Z,16.39
2018-09-10T07:03:56.848Z,16.43
2018-09-10T07:04:57.146Z,16.47
2018-09-10T07:05:56.997Z,16.49
2018-09-10T07:06:56.911Z,16.51
2018-09-10T07:07:56.996Z,16.56
2018-09-10T07:08:56.841Z,16.57
2018-09-10T07:09:56.871Z,16.62
2018-09-10T07:10:57.335Z,16.67
2018-09-10T07:11:57.049Z,16.68
2018-09-10T07:12:57.205Z,16.73
2018-09-10T07:13:56.891Z,16.74
2018-09-10T07:14:56.868Z,16.79
2018-09-10T07:15:56.940Z,16.8
2018-09-10T07:16:56.991Z,16.86
2018-09-10T07:17:56.917Z,16.88
2018-09-10T07:18:57.390Z,16.91
2018-09-10T07:19:56.837Z,16.97
2018-09-10T07:20:56.893Z,17
2018-09-10T07:21:56.907Z,17.02
2018-09-10T07:22:57.191Z,17.04
2018-09-10T07:23:56.865Z,17.06
2018-09-10T07:24:56.842Z,17.11
2018-09-10T07:25:57.436Z,17.15
2018-09-10T07:26:57.216Z,17.18
2018-09-10T07:27:57.135Z,17.24
2018-09-10T07:28:57.411Z,17.29
2018-09-10T07:29:56.943Z,17.31
2018-09-10T07:30:57.220Z,17.35
2018-09-10T07:31:57.207Z,17.39
2018-09-10T07:32:56.947Z,17.43
2018-09-10T07:33:57.102Z,17.47
2018-09-10T07:34:56.868Z,17.51
2018-09-10T07:35:56.878Z,17.54
2018-09-10T07:36:56.914Z,17.58
2018-09-10T07:37:56.936Z,17.62
2018-09-10T07:38:56.937Z,17.64
2018-09-10T07:39:56.916Z,17.7
2018-09-10T07:40:57.019Z,17.71
2018-09-10T07:41:56.892Z,17.75
2018-09-10T07:42:56.928Z,17.8
2018-09-10T07:43:58.744Z,17.82
2018-09-10T07:44:56.888Z,17.85
2018-09-10T07:45:57.007Z,17.89
2018-09-10T07:46:56.964Z,17.91
2018-09-10T07:47:56.884Z,17.94
2018-09-10T07:48:57.634Z,17.96
2018-09-10T07:49:56.915Z,17.99
2018-09-10T07:50:56.917Z,18.03
2018-09-10T07:51:56.930Z,18.02
2018-09-10T07:52:57.129Z,18.03
2018-09-10T07:53:56.914Z,18.07
2018-09-10T07:54:56.949Z,18.09
2018-09-10T07:55:57.232Z,18.1
2018-09-10T07:56:56.911Z,18.14
2018-09-10T07:57:56.907Z,18.15
2018-09-10T07:58:57.065Z,18.16
2018-09-10T07:59:57.367Z,18.19
2018-09-10T08:00:56.879Z,18.2
2018-09-10T08:01:56.914Z,18.21
2018-09-10T08:02:57.432Z,18.23
2018-09-10T08:03:57.313Z,18.27
2018-09-10T08:04:56.883Z,18.28
2018-09-10T08:05:56.897Z,18.32
2018-09-10T08:06:56.947Z,18.33
2018-09-10T08:07:56.901Z,18.33
2018-09-10T08:08:57.261Z,18.36
2018-09-10T08:09:56.960Z,18.38
2018-09-10T08:10:57.216Z,18.39
2018-09-10T08:11:57.549Z,18.41
2018-09-10T08:12:56.911Z,18.42
2018-09-10T08:13:56.927Z,18.46
2018-09-10T08:14:56.899Z,18.49
2018-09-10T08:15:57.109Z,18.52
2018-09-10T08:16:56.947Z,18.52
2018-09-10T08:17:56.913Z,18.55
2018-09-10T08:18:56.903Z,18.56
2018-09-10T08:19:57.174Z,18.56
2018-09-10T08:20:57.177Z,18.57
2018-09-10T08:21:56.894Z,18.59
2018-09-10T08:22:57.153Z,18.62
2018-09-10T08:23:57.141Z,18.66
2018-09-10T08:24:57.006Z,18.7
2018-09-10T08:25:56.964Z,18.75
2018-09-10T08:26:56.941Z,18.8
2018-09-10T08:27:56.907Z,18.87
2018-09-10T08:28:56.949Z,18.93
2018-09-10T08:29:56.870Z,18.99
2018-09-10T08:30:56.943Z,19.04
2018-09-10T08:31:57.156Z,19.11
2018-09-10T08:32:56.996Z,19.16
2018-09-10T08:33:57.628Z,19.2
2018-09-10T08:34:56.986Z,19.29
2018-09-10T08:35:57.119Z,19.34
2018-09-10T08:36:57.281Z,19.39
2018-09-10T08:37:56.943Z,19.41
2018-09-10T08:38:56.900Z,19.43
2018-09-10T08:39:56.943Z,19.47
2018-09-10T08:40:56.902Z,19.53
2018-09-10T08:41:56.921Z,19.57
2018-09-10T08:42:57.676Z,19.6
2018-09-10T08:43:56.922Z,19.62
2018-09-10T08:44:57.036Z,19.62
2018-09-10T08:45:57.257Z,19.66
2018-09-10T08:46:56.957Z,19.68
2018-09-10T08:47:56.895Z,19.74
2018-09-10T08:48:57.003Z,19.81
2018-09-10T08:49:56.910Z,19.83
2018-09-10T08:50:56.935Z,19.9
2018-09-10T08:51:57.165Z,19.93
2018-09-10T08:52:57.095Z,19.98
2018-09-10T08:53:57.733Z,20.03
2018-09-10T08:55:01.185Z,20.06
2018-09-10T08:56:00.092Z,20.11
2018-09-10T08:56:56.941Z,20.18
2018-09-10T08:57:56.935Z,20.19
2018-09-10T08:58:56.974Z,20.23
2018-09-10T08:59:57.100Z,20.27
2018-09-10T09:00:57.146Z,20.3
2018-09-10T09:01:57.686Z,20.3
2018-09-10T09:02:57.102Z,20.32
2018-09-10T09:03:56.939Z,20.35
2018-09-10T09:04:57.009Z,20.39
2018-09-10T09:05:57.594Z,20.41
2018-09-10T09:06:56.934Z,20.41
2018-09-10T09:07:57.640Z,20.41
2018-09-10T09:08:57.313Z,20.43
2018-09-10T09:09:56.919Z,20.48
2018-09-10T09:10:56.936Z,20.49
2018-09-10T09:11:57.007Z,20.53
2018-09-10T09:12:56.960Z,20.55
2018-09-10T09:13:57.185Z,20.56
2018-09-10T09:14:57.157Z,20.58
2018-09-10T09:15:57.028Z,20.6
2018-09-10T09:16:57.214Z,20.62
2018-09-10T09:17:56.977Z,20.63
2018-09-10T09:18:56.914Z,20.63
2018-09-10T09:19:57.102Z,20.67
2018-09-10T09:20:57.227Z,20.69
2018-09-10T09:21:57.327Z,20.72
2018-09-10T09:22:56.945Z,20.74
2018-09-10T09:23:56.986Z,20.73
2018-09-10T09:24:57.001Z,20.76
2018-09-10T09:25:56.954Z,20.81
2018-09-10T09:26:56.960Z,20.8
2018-09-10T09:27:58.609Z,20.78
2018-09-10T09:28:57.063Z,20.81
2018-09-10T09:29:58.140Z,20.85
2018-09-10T09:30:56.994Z,20.93
2018-09-10T09:31:57.169Z,20.93
2018-09-10T09:32:56.943Z,20.91
2018-09-10T09:33:57.114Z,20.94
2018-09-10T09:34:57.083Z,20.94
2018-09-10T09:35:56.992Z,20.96
2018-09-10T09:36:56.955Z,20.99
2018-09-10T09:37:57.306Z,21.01
2018-09-10T09:38:57.040Z,21.03
2018-09-10T09:39:56.964Z,21.07
2018-09-10T09:40:57.210Z,21.11
2018-09-10T09:41:57.118Z,21.12
2018-09-10T09:42:57.972Z,21.15
2018-09-10T09:43:57.183Z,21.16
2018-09-10T09:44:57.290Z,21.21
2018-09-10T09:45:57.062Z,21.21
2018-09-10T09:47:03.418Z,21.25
2018-09-10T09:47:56.948Z,21.25
2018-09-10T09:48:58.519Z,21.28
2018-09-10T09:49:57.165Z,21.34
2018-09-10T09:50:57.666Z,21.36
2018-09-10T09:51:57.032Z,21.41
2018-09-10T09:52:56.954Z,21.43
2018-09-10T09:53:56.963Z,21.44
2018-09-10T09:54:57.010Z,21.49
2018-09-10T09:55:57.258Z,21.51
2018-09-10T09:56:56.957Z,21.56
2018-09-10T09:57:57.088Z,21.63
2018-09-10T09:59:00.117Z,21.68
2018-09-10T09:59:57.089Z,21.71
2018-09-10T10:01:01.368Z,21.74
2018-09-10T10:01:57.169Z,21.75
2018-09-10T10:02:57.357Z,21.79
2018-09-10T10:03:57.550Z,21.88
2018-09-10T10:04:57.040Z,21.91
2018-09-10T10:05:57.317Z,21.93
2018-09-10T10:06:58.395Z,21.95
2018-09-10T10:07:57.032Z,22
2018-09-10T10:08:57.163Z,22.05
2018-09-10T10:09:59.793Z,22.1
2018-09-10T10:10:59.327Z,22.13
2018-09-10T10:11:57.545Z,22.21
2018-09-10T10:12:58.865Z,22.26
2018-09-10T10:13:57.180Z,22.39
2018-09-10T10:14:57.151Z,22.46
2018-09-10T10:15:56.988Z,22.47
2018-09-10T10:16:57.050Z,22.53
2018-09-10T10:17:56.973Z,22.6
2018-09-10T10:18:56.986Z,22.63
2018-09-10T10:19:56.993Z,22.7
2018-09-10T10:20:56.990Z,22.76
2018-09-10T10:21:57.413Z,22.83
2018-09-10T10:22:57.015Z,22.85
2018-09-10T10:23:57.171Z,22.89
2018-09-10T10:24:57.040Z,22.98
2018-09-10T10:25:57.059Z,23.03
2018-09-10T10:26:57.133Z,23.04
2018-09-10T10:27:57.035Z,23.07
2018-09-10T10:28:57.088Z,23.12
2018-09-10T10:29:57.106Z,23.19
2018-09-10T10:30:57.094Z,23.21
2018-09-10T10:31:57.037Z,23.26
2018-09-10T10:32:57.087Z,23.25
2018-09-10T10:33:57.059Z,23.31
2018-09-10T10:34:57.051Z,23.39
2018-09-10T10:35:57.805Z,23.53
2018-09-10T10:36:57.327Z,23.58
2018-09-10T10:37:57.001Z,23.61
2018-09-10T10:39:01.309Z,23.67
2018-09-10T10:39:57.200Z,23.72
2018-09-10T10:40:56.990Z,23.69
2018-09-10T10:41:57.086Z,23.75
2018-09-10T10:42:59.240Z,23.77
2018-09-10T10:43:57.142Z,23.75
2018-09-10T10:44:57.006Z,23.8
2018-09-10T10:45:57.124Z,23.85
2018-09-10T10:47:00.782Z,23.84
2018-09-10T10:47:57.112Z,23.87
2018-09-10T10:48:57.131Z,23.85
2018-09-10T10:50:06.135Z,23.89
2018-09-10T10:50:59.502Z,23.89
2018-09-10T10:51:57.646Z,23.9
2018-09-10T10:52:57.970Z,23.86
2018-09-10T10:53:58.097Z,23.89
2018-09-10T10:54:57.637Z,23.9
2018-09-10T10:55:57.114Z,23.92
2018-09-10T10:56:57.122Z,23.93
2018-09-10T10:57:57.658Z,23.91
2018-09-10T10:58:57.128Z,23.96
2018-09-10T10:59:57.042Z,24.01
2018-09-10T11:00:57.143Z,24.02
2018-09-10T11:01:57.238Z,24.02
2018-09-10T11:02:57.158Z,24.03
2018-09-10T11:03:57.278Z,24.03
2018-09-10T11:04:57.346Z,24.08
2018-09-10T11:05:57.107Z,24.03
2018-09-10T11:06:57.058Z,24.05
2018-09-10T11:07:56.997Z,24.09
2018-09-10T11:08:57.295Z,24.15
2018-09-10T11:09:57.658Z,24.16
2018-09-10T11:10:57.363Z,24.13
2018-09-10T11:11:57.066Z,24.11
2018-09-10T11:12:57.279Z,24.11
2018-09-10T11:13:57.890Z,24.14
2018-09-10T11:14:57.445Z,24.17
2018-09-10T11:15:57.091Z,24.17
2018-09-10T11:16:57.067Z,24.26
2018-09-10T11:17:57.132Z,24.24
2018-09-10T11:18:57.212Z,24.29
2018-09-10T11:19:57.052Z,24.36
2018-09-10T11:20:57.202Z,24.37
2018-09-10T11:21:57.176Z,24.41
2018-09-10T11:22:57.043Z,24.47
2018-09-10T11:23:57.213Z,24.48
2018-09-10T11:24:57.114Z,24.49
2018-09-10T11:25:57.584Z,24.53
2018-09-10T11:26:57.178Z,24.5
2018-09-10T11:27:57.191Z,24.53
2018-09-10T11:28:57.152Z,24.54
2018-09-10T11:29:57.172Z,24.54
2018-09-10T11:30:57.060Z,24.58
2018-09-10T11:31:57.161Z,24.6
2018-09-10T11:32:57.594Z,24.6
2018-09-10T11:33:57.136Z,24.69
2018-09-10T11:34:57.197Z,24.74
2018-09-10T11:35:57.165Z,24.8
2018-09-10T11:36:57.082Z,24.87
2018-09-10T11:37:57.319Z,24.89
2018-09-10T11:38:57.082Z,24.94
2018-09-10T11:39:57.040Z,24.93
2018-09-10T11:40:57.081Z,24.99
2018-09-10T11:41:57.243Z,25
2018-09-10T11:42:57.097Z,25.02
2018-09-10T11:43:57.157Z,25.03
2018-09-10T11:44:57.397Z,25.07
2018-09-10T11:45:57.181Z,25.17
2018-09-10T11:46:57.078Z,25.09
2018-09-10T11:47:57.224Z,25.08
2018-09-10T11:48:57.440Z,25.09
2018-09-10T11:49:57.079Z,25.09
2018-09-10T11:50:57.070Z,25.12
2018-09-10T11:51:57.057Z,25.18
2018-09-10T11:52:57.191Z,25.18
2018-09-10T11:53:57.631Z,25.21
2018-09-10T11:54:57.108Z,25.23
2018-09-10T11:55:57.165Z,25.26
2018-09-10T11:56:57.042Z,25.29
2018-09-10T11:57:57.224Z,25.43
2018-09-10T11:58:57.230Z,25.42
2018-09-10T11:59:57.147Z,25.43
2018-09-10T12:00:57.232Z,25.42
2018-09-10T12:01:57.541Z,25.46
2018-09-10T12:02:57.095Z,25.42
2018-09-10T12:03:57.190Z,25.48
2018-09-10T12:04:57.199Z,25.48
2018-09-10T12:05:57.269Z,25.48
2018-09-10T12:06:57.155Z,25.42
2018-09-10T12:07:57.312Z,25.4
2018-09-10T12:08:57.323Z,25.39
2018-09-10T12:09:57.159Z,25.44
2018-09-10T12:10:57.183Z,25.46
2018-09-10T12:11:57.337Z,25.5
2018-09-10T12:12:57.198Z,25.57
2018-09-10T12:13:58.056Z,25.58
2018-09-10T12:14:57.188Z,25.6
2018-09-10T12:15:57.102Z,25.64
2018-09-10T12:16:57.223Z,25.71
2018-09-10T12:17:57.206Z,25.7
2018-09-10T12:18:57.201Z,25.77
2018-09-10T12:19:57.199Z,25.79
2018-09-10T12:20:57.158Z,25.83
2018-09-10T12:21:57.232Z,25.83
2018-09-10T12:22:57.437Z,25.9
2018-09-10T12:23:57.576Z,25.91
2018-09-10T12:24:57.157Z,25.95
2018-09-10T12:25:57.210Z,25.97
2018-09-10T12:26:57.132Z,26.04
2018-09-10T12:27:57.276Z,26.07
2018-09-10T12:28:57.208Z,26.03
2018-09-10T12:29:57.197Z,26.03
2018-09-10T12:30:57.416Z,26.08
2018-09-10T12:31:57.502Z,26.11
2018-09-10T12:32:57.246Z,26.15
2018-09-10T12:33:57.090Z,26.15
2018-09-10T12:34:57.166Z,26.21
2018-09-10T12:35:57.127Z,26.21
2018-09-10T12:36:57.169Z,26.27
2018-09-10T12:37:57.111Z,26.3
2018-09-10T12:38:57.731Z,26.29
2018-09-10T12:39:57.433Z,26.27
2018-09-10T12:40:57.307Z,26.29
2018-09-10T12:41:57.196Z,26.32
2018-09-10T12:42:57.102Z,26.31
2018-09-10T12:43:57.139Z,26.32
2018-09-10T12:44:57.693Z,26.32
2018-09-10T12:45:57.268Z,26.39
2018-09-10T12:46:57.324Z,26.37
2018-09-10T12:47:57.287Z,26.38
2018-09-10T12:48:57.497Z,26.43
2018-09-10T12:49:57.324Z,26.44
2018-09-10T12:50:57.090Z,26.47
2018-09-10T12:51:57.144Z,26.52
2018-09-10T12:52:57.086Z,26.54
2018-09-10T12:53:57.193Z,26.59
2018-09-10T12:54:57.121Z,26.65
2018-09-10T12:55:57.228Z,26.66